Flight Track Log - Related Links

Times and Time Zones

All times are in EDT time to prevent confusion due to time zone crossing. See the UPS834 flight status page for this flight to view local times or setup timezone preferences in your user account.

Time Position Orientation Groundspeed Altitude Reporting Facility
EDT Latitude Longitude Course Direction KTS MPH feet Rate Location/Type
Fri 08:45:27 AM 40.7758 -111.9983 246° West 173 199 5,200  Level Salt Lake Center
Fri 08:46:39 AM 40.7500 -112.0750 246° West 245 282 7,700 2,289 Climbing Salt Lake Center
Fri 08:47:04 AM 40.7628 -112.1022 302° West 256 295 8,900 2,512 Climbing Salt Lake Center
Fri 08:48:05 AM 40.8039 -112.1997 299° West 308 354 11,300 2,529 Climbing Salt Lake Center
Fri 08:49:05 AM 40.8906 -112.2767 326° Northwest 373 429 14,000 2,975 Climbing Salt Lake Center
Fri 08:50:06 AM 40.9833 -112.3567 327° Northwest 395 455 17,300 2,975 Climbing Salt Lake Center
Fri 08:51:06 AM 41.0781 -112.4411 326° Northwest 408 470 20,000 2,678 Climbing Salt Lake Center
Fri 08:52:07 AM 41.1761 -112.5289 326° Northwest 422 486 22,700 2,311 Climbing Salt Lake Center
Fri 08:53:08 AM 41.2756 -112.6231 325° Northwest 440 506 24,700 2,033 Climbing Salt Lake Center
Fri 08:54:08 AM 41.3644 -112.7447 314° West 458 527 26,800 2,231 Climbing Salt Lake Center
Fri 08:55:09 AM 41.4506 -112.8731 312° West 463 533 29,200 1,587 Climbing Salt Lake Center
Fri 08:56:09 AM 41.5333 -113.0033 310° West 460 529 30,000 397 Climbing Salt Lake Center
Fri 08:57:10 AM 41.6175 -113.1339 311° West 463 533 30,000  Level Salt Lake Center
Fri 08:58:11 AM 41.7044 -113.2631 312° West 466 536 30,000  Level Salt Lake Center
Fri 08:59:11 AM 41.7875 -113.3953 310° West 465 535 30,000  Level Salt Lake Center
Fri 09:00:12 AM 41.8714 -113.5236 311° West 460 529 30,000  Level Salt Lake Center
Fri 09:01:13 AM 41.9544 -113.6539 311° West 460 529 30,000  Level Salt Lake Center
Fri 09:02:13 AM 42.0375 -113.7842 311° West 461 531 30,000  Level Salt Lake Center
Fri 09:03:14 AM 42.1203 -113.9150 310° West 460 529 30,000  Level Salt Lake Center
Fri 09:04:15 AM 42.2036 -114.0453 311° West 461 531 30,000  Level Salt Lake Center
Fri 09:05:15 AM 42.2858 -114.1769 310° West 461 531 30,000  Level Salt Lake Center
Fri 09:06:16 AM 42.3844 -114.3389 310° West 459 528 30,000  Level Salt Lake Center
Fri 09:07:17 AM 42.4667 -114.4706 310° West 457 526 30,000  Level Salt Lake Center
Fri 09:08:17 AM 42.5492 -114.6003 311° West 455 524 30,000 -992 Level Salt Lake Center
Fri 09:09:18 AM 42.6331 -114.7281 312° West 452 520 28,000 -2,803 Descending Salt Lake Center
Fri 09:10:19 AM 42.7133 -114.8558 311° West 462 532 24,300 -3,148 Descending Salt Lake Center
Fri 09:11:20 AM 42.7911 -114.9747 312° West 444 511 21,600 -2,459 Descending Salt Lake Center
Fri 09:12:21 AM 42.8789 -115.1133 311° West 423 487 19,300 -1,884 Descending Salt Lake Center
Fri 09:13:21 AM 42.9508 -115.2261 311° West 412 474 17,800 -1,388 Descending Salt Lake Center
Fri 09:14:22 AM 43.0261 -115.3447 311° West 400 460 16,500 -1,377 Descending Salt Lake Center
Fri 09:15:23 AM 43.1000 -115.4628 311° West 391 450 15,000 -1,426 Descending Salt Lake Center
Fri 09:16:24 AM 43.1667 -115.5692 311° West 384 442 13,600 -984 Descending Salt Lake Center
Fri 09:17:25 AM 43.2381 -115.6825 311° West 379 436 13,000 -1,438 Descending Salt Lake Center
Fri 09:18:25 AM 43.3083 -115.7969 310° West 374 430 10,700 -1,636 Descending Salt Lake Center
Fri 09:19:26 AM 43.3706 -115.8781 317° Northwest 311 358 9,700 -2,311 Descending Salt Lake Center
Fri 09:20:27 AM 43.4272 -115.9503 317° Northwest 271 312 6,000 -2,016 Descending Salt Lake Center
Fri 09:21:28 AM 43.4761 -116.0122 317° Northwest 223 257 5,600 -344 Descending Salt Lake Center
Fri 09:22:29 AM 43.5100 -116.0683 310° West 200 230 5,300 -689 Descending Salt Lake Center
Fri 09:23:30 AM 43.5319 -116.1347 295° West 186 214 4,200 -934 Descending Salt Lake Center
Fri 09:24:31 AM 43.5481 -116.1817 295° West 148 170 3,400 -787 Descending Salt Lake Center
Fri 09:26:00 AM 43.5500 -116.2167 270° West  Level FlightAware Approximate
Fri 09:33:00 AM 43.5644 -116.2229 270° West  Level Estimated
Fri 09:34:00 AM 43.5644 -116.2229 270° West  Level Estimated

Login

Don't have an account? Register now (free) for customized features, flight alerts, and more!